sensor_id;sensor_type;location;lat;lon;timestamp;P1;durP1;ratioP1;P2;durP2;ratioP2
24279;SDS011;12395;42.808;23.408;2023-05-06T00:01:01;11.95;;;5.97;;
24279;SDS011;12395;42.808;23.408;2023-05-06T00:03:26;10.60;;;5.97;;
24279;SDS011;12395;42.808;23.408;2023-05-06T00:05:52;13.90;;;6.30;;
24279;SDS011;12395;42.808;23.408;2023-05-06T00:08:18;11.48;;;5.72;;
24279;SDS011;12395;42.808;23.408;2023-05-06T00:10:43;12.45;;;5.75;;
24279;SDS011;12395;42.808;23.408;2023-05-06T00:13:09;11.95;;;6.15;;
24279;SDS011;12395;42.808;23.408;2023-05-06T00:15:34;11.40;;;5.68;;
24279;SDS011;12395;42.808;23.408;2023-05-06T00:18:00;11.30;;;5.88;;
24279;SDS011;12395;42.808;23.408;2023-05-06T00:20:26;11.63;;;5.70;;
24279;SDS011;12395;42.808;23.408;2023-05-06T00:22:52;11.52;;;5.57;;
24279;SDS011;12395;42.808;23.408;2023-05-06T00:25:18;11.20;;;5.90;;
24279;SDS011;12395;42.808;23.408;2023-05-06T00:27:43;11.55;;;5.78;;
24279;SDS011;12395;42.808;23.408;2023-05-06T00:30:09;11.50;;;5.68;;
24279;SDS011;12395;42.808;23.408;2023-05-06T00:32:35;10.68;;;5.32;;
24279;SDS011;12395;42.808;23.408;2023-05-06T00:35:01;12.48;;;5.97;;
24279;SDS011;12395;42.808;23.408;2023-05-06T00:37:27;11.95;;;5.90;;
24279;SDS011;12395;42.808;23.408;2023-05-06T00:39:53;10.30;;;5.18;;
24279;SDS011;12395;42.808;23.408;2023-05-06T00:42:18;12.18;;;6.35;;
24279;SDS011;12395;42.808;23.408;2023-05-06T00:44:46;11.52;;;6.03;;
24279;SDS011;12395;42.808;23.408;2023-05-06T00:47:11;12.85;;;5.55;;
24279;SDS011;12395;42.808;23.408;2023-05-06T00:49:37;12.90;;;5.90;;
24279;SDS011;12395;42.808;23.408;2023-05-06T00:52:03;12.20;;;6.18;;
24279;SDS011;12395;42.808;23.408;2023-05-06T00:54:29;14.40;;;6.47;;
24279;SDS011;12395;42.808;23.408;2023-05-06T00:56:54;11.85;;;5.93;;
24279;SDS011;12395;42.808;23.408;2023-05-06T00:59:21;12.65;;;6.38;;
24279;SDS011;12395;42.808;23.408;2023-05-06T01:01:47;13.40;;;6.47;;
24279;SDS011;12395;42.808;23.408;2023-05-06T01:04:14;13.77;;;6.10;;
24279;SDS011;12395;42.808;23.408;2023-05-06T01:09:37;11.23;;;5.88;;
24279;SDS011;12395;42.808;23.408;2023-05-06T01:12:18;13.43;;;5.47;;
24279;SDS011;12395;42.808;23.408;2023-05-06T01:15:01;11.73;;;5.68;;
24279;SDS011;12395;42.808;23.408;2023-05-06T01:17:35;10.75;;;5.47;;
24279;SDS011;12395;42.808;23.408;2023-05-06T01:20:04;12.65;;;6.40;;
24279;SDS011;12395;42.808;23.408;2023-05-06T01:22:32;13.32;;;6.35;;
24279;SDS011;12395;42.808;23.408;2023-05-06T01:25:00;13.60;;;6.78;;
24279;SDS011;12395;42.808;23.408;2023-05-06T01:27:26;12.35;;;6.47;;
24279;SDS011;12395;42.808;23.408;2023-05-06T01:29:52;13.20;;;6.47;;
24279;SDS011;12395;42.808;23.408;2023-05-06T01:35:09;12.57;;;6.10;;
24279;SDS011;12395;42.808;23.408;2023-05-06T01:37:44;13.30;;;6.47;;
24279;SDS011;12395;42.808;23.408;2023-05-06T01:40:16;12.38;;;6.15;;
24279;SDS011;12395;42.808;23.408;2023-05-06T01:42:43;13.60;;;6.70;;
24279;SDS011;12395;42.808;23.408;2023-05-06T01:45:12;14.40;;;7.13;;
24279;SDS011;12395;42.808;23.408;2023-05-06T01:47:40;13.52;;;6.63;;
24279;SDS011;12395;42.808;23.408;2023-05-06T01:50:06;16.17;;;7.20;;
24279;SDS011;12395;42.808;23.408;2023-05-06T01:52:32;15.73;;;7.80;;
24279;SDS011;12395;42.808;23.408;2023-05-06T01:54:57;15.05;;;7.60;;
24279;SDS011;12395;42.808;23.408;2023-05-06T01:57:23;14.30;;;7.22;;
24279;SDS011;12395;42.808;23.408;2023-05-06T01:59:48;15.20;;;7.65;;
24279;SDS011;12395;42.808;23.408;2023-05-06T02:02:14;15.48;;;7.65;;
24279;SDS011;12395;42.808;23.408;2023-05-06T02:04:39;15.13;;;7.38;;
24279;SDS011;12395;42.808;23.408;2023-05-06T02:07:05;16.40;;;7.50;;
24279;SDS011;12395;42.808;23.408;2023-05-06T02:09:30;18.88;;;8.20;;
24279;SDS011;12395;42.808;23.408;2023-05-06T02:11:56;17.40;;;8.45;;
24279;SDS011;12395;42.808;23.408;2023-05-06T02:14:21;15.38;;;7.28;;
24279;SDS011;12395;42.808;23.408;2023-05-06T02:16:47;17.75;;;7.85;;
24279;SDS011;12395;42.808;23.408;2023-05-06T02:19:12;17.45;;;8.48;;
24279;SDS011;12395;42.808;23.408;2023-05-06T02:21:37;16.63;;;7.40;;
24279;SDS011;12395;42.808;23.408;2023-05-06T02:24:03;15.65;;;7.45;;
24279;SDS011;12395;42.808;23.408;2023-05-06T02:26:28;15.57;;;8.15;;
24279;SDS011;12395;42.808;23.408;2023-05-06T02:28:54;16.27;;;8.57;;
24279;SDS011;12395;42.808;23.408;2023-05-06T02:31:19;15.23;;;7.68;;
24279;SDS011;12395;42.808;23.408;2023-05-06T02:33:44;17.63;;;8.38;;
24279;SDS011;12395;42.808;23.408;2023-05-06T02:36:10;17.00;;;8.57;;
24279;SDS011;12395;42.808;23.408;2023-05-06T02:38:35;17.75;;;8.55;;
24279;SDS011;12395;42.808;23.408;2023-05-06T02:41:01;16.85;;;8.50;;
24279;SDS011;12395;42.808;23.408;2023-05-06T02:43:26;17.98;;;8.45;;
24279;SDS011;12395;42.808;23.408;2023-05-06T02:45:52;15.57;;;7.85;;
24279;SDS011;12395;42.808;23.408;2023-05-06T02:48:17;17.90;;;8.57;;
24279;SDS011;12395;42.808;23.408;2023-05-06T02:50:43;16.05;;;8.60;;
24279;SDS011;12395;42.808;23.408;2023-05-06T02:53:08;16.52;;;8.45;;
24279;SDS011;12395;42.808;23.408;2023-05-06T02:55:34;17.67;;;8.68;;
24279;SDS011;12395;42.808;23.408;2023-05-06T02:58:00;17.08;;;8.68;;
24279;SDS011;12395;42.808;23.408;2023-05-06T03:00:25;18.20;;;8.98;;
24279;SDS011;12395;42.808;23.408;2023-05-06T03:02:51;19.15;;;9.32;;
24279;SDS011;12395;42.808;23.408;2023-05-06T03:05:16;16.85;;;8.27;;
24279;SDS011;12395;42.808;23.408;2023-05-06T03:07:42;16.30;;;8.75;;
24279;SDS011;12395;42.808;23.408;2023-05-06T03:10:07;17.02;;;8.10;;
24279;SDS011;12395;42.808;23.408;2023-05-06T03:12:33;16.83;;;8.48;;
24279;SDS011;12395;42.808;23.408;2023-05-06T03:14:58;18.10;;;9.52;;
24279;SDS011;12395;42.808;23.408;2023-05-06T03:17:24;17.00;;;8.63;;
24279;SDS011;12395;42.808;23.408;2023-05-06T03:19:49;15.95;;;8.13;;
24279;SDS011;12395;42.808;23.408;2023-05-06T03:22:15;18.52;;;9.40;;
24279;SDS011;12395;42.808;23.408;2023-05-06T03:24:41;16.92;;;8.82;;
24279;SDS011;12395;42.808;23.408;2023-05-06T03:27:06;16.92;;;8.85;;
24279;SDS011;12395;42.808;23.408;2023-05-06T03:29:32;16.40;;;8.70;;
24279;SDS011;12395;42.808;23.408;2023-05-06T03:31:57;15.93;;;8.63;;
24279;SDS011;12395;42.808;23.408;2023-05-06T03:34:27;15.40;;;9.20;;
24279;SDS011;12395;42.808;23.408;2023-05-06T03:36:53;16.08;;;8.07;;
24279;SDS011;12395;42.808;23.408;2023-05-06T03:39:18;21.67;;;8.32;;
24279;SDS011;12395;42.808;23.408;2023-05-06T03:41:44;16.90;;;8.50;;
24279;SDS011;12395;42.808;23.408;2023-05-06T03:44:09;15.05;;;8.68;;
24279;SDS011;12395;42.808;23.408;2023-05-06T03:46:35;13.68;;;7.45;;
24279;SDS011;12395;42.808;23.408;2023-05-06T03:49:00;15.98;;;8.30;;
24279;SDS011;12395;42.808;23.408;2023-05-06T03:51:26;15.23;;;8.70;;
24279;SDS011;12395;42.808;23.408;2023-05-06T03:53:52;16.45;;;9.32;;
24279;SDS011;12395;42.808;23.408;2023-05-06T03:56:18;15.52;;;8.98;;
24279;SDS011;12395;42.808;23.408;2023-05-06T03:58:45;16.17;;;8.85;;
24279;SDS011;12395;42.808;23.408;2023-05-06T04:01:11;16.60;;;8.88;;
24279;SDS011;12395;42.808;23.408;2023-05-06T04:03:36;14.93;;;8.57;;
24279;SDS011;12395;42.808;23.408;2023-05-06T04:06:02;14.75;;;8.38;;
24279;SDS011;12395;42.808;23.408;2023-05-06T04:08:27;16.52;;;8.70;;
24279;SDS011;12395;42.808;23.408;2023-05-06T04:10:53;15.15;;;8.57;;
24279;SDS011;12395;42.808;23.408;2023-05-06T04:13:19;15.60;;;8.27;;
24279;SDS011;12395;42.808;23.408;2023-05-06T04:15:44;14.05;;;8.18;;
24279;SDS011;12395;42.808;23.408;2023-05-06T04:18:10;16.42;;;8.57;;
24279;SDS011;12395;42.808;23.408;2023-05-06T04:20:35;14.52;;;8.55;;
24279;SDS011;12395;42.808;23.408;2023-05-06T04:23:00;17.02;;;7.35;;
24279;SDS011;12395;42.808;23.408;2023-05-06T04:25:26;14.63;;;7.70;;
24279;SDS011;12395;42.808;23.408;2023-05-06T04:27:52;13.73;;;7.43;;
24279;SDS011;12395;42.808;23.408;2023-05-06T04:30:18;14.77;;;7.45;;
24279;SDS011;12395;42.808;23.408;2023-05-06T04:32:45;18.93;;;9.30;;
24279;SDS011;12395;42.808;23.408;2023-05-06T04:35:10;20.48;;;10.20;;
24279;SDS011;12395;42.808;23.408;2023-05-06T04:37:36;17.13;;;10.00;;
24279;SDS011;12395;42.808;23.408;2023-05-06T04:40:01;17.98;;;9.52;;
24279;SDS011;12395;42.808;23.408;2023-05-06T04:42:27;16.88;;;9.23;;
24279;SDS011;12395;42.808;23.408;2023-05-06T04:44:53;20.85;;;10.93;;
24279;SDS011;12395;42.808;23.408;2023-05-06T04:47:18;19.08;;;10.95;;
24279;SDS011;12395;42.808;23.408;2023-05-06T04:49:44;19.42;;;11.05;;
24279;SDS011;12395;42.808;23.408;2023-05-06T04:52:09;22.13;;;11.65;;
24279;SDS011;12395;42.808;23.408;2023-05-06T04:54:34;19.77;;;10.80;;
24279;SDS011;12395;42.808;23.408;2023-05-06T04:57:00;19.27;;;10.73;;
24279;SDS011;12395;42.808;23.408;2023-05-06T04:59:27;18.00;;;10.55;;
24279;SDS011;12395;42.808;23.408;2023-05-06T05:01:52;19.85;;;10.82;;
24279;SDS011;12395;42.808;23.408;2023-05-06T05:04:18;21.67;;;11.20;;
24279;SDS011;12395;42.808;23.408;2023-05-06T05:06:43;19.30;;;11.20;;
24279;SDS011;12395;42.808;23.408;2023-05-06T05:09:08;16.15;;;9.88;;
24279;SDS011;12395;42.808;23.408;2023-05-06T05:11:37;21.63;;;10.55;;
24279;SDS011;12395;42.808;23.408;2023-05-06T05:14:03;15.68;;;9.15;;
24279;SDS011;12395;42.808;23.408;2023-05-06T05:16:28;17.85;;;9.63;;
24279;SDS011;12395;42.808;23.408;2023-05-06T05:18:54;15.70;;;9.25;;
24279;SDS011;12395;42.808;23.408;2023-05-06T05:21:20;18.15;;;10.73;;
24279;SDS011;12395;42.808;23.408;2023-05-06T05:23:45;20.95;;;11.70;;
24279;SDS011;12395;42.808;23.408;2023-05-06T05:26:11;17.15;;;10.48;;
24279;SDS011;12395;42.808;23.408;2023-05-06T05:28:37;18.50;;;10.73;;
24279;SDS011;12395;42.808;23.408;2023-05-06T05:31:03;17.55;;;9.13;;
24279;SDS011;12395;42.808;23.408;2023-05-06T05:33:29;18.88;;;10.38;;
24279;SDS011;12395;42.808;23.408;2023-05-06T05:35:54;17.67;;;9.23;;
24279;SDS011;12395;42.808;23.408;2023-05-06T05:38:20;16.92;;;10.07;;
24279;SDS011;12395;42.808;23.408;2023-05-06T05:40:46;19.73;;;10.02;;
24279;SDS011;12395;42.808;23.408;2023-05-06T05:43:14;17.77;;;9.93;;
24279;SDS011;12395;42.808;23.408;2023-05-06T05:45:40;16.33;;;9.05;;
24279;SDS011;12395;42.808;23.408;2023-05-06T05:48:05;17.10;;;9.50;;
24279;SDS011;12395;42.808;23.408;2023-05-06T05:50:31;16.73;;;8.98;;
24279;SDS011;12395;42.808;23.408;2023-05-06T05:52:56;16.75;;;9.30;;
24279;SDS011;12395;42.808;23.408;2023-05-06T05:55:21;17.55;;;9.68;;
24279;SDS011;12395;42.808;23.408;2023-05-06T05:57:47;17.27;;;9.73;;
24279;SDS011;12395;42.808;23.408;2023-05-06T06:00:12;25.40;;;10.88;;
24279;SDS011;12395;42.808;23.408;2023-05-06T06:02:38;22.58;;;10.82;;
24279;SDS011;12395;42.808;23.408;2023-05-06T06:05:04;18.20;;;9.80;;
24279;SDS011;12395;42.808;23.408;2023-05-06T06:07:29;16.30;;;9.13;;
24279;SDS011;12395;42.808;23.408;2023-05-06T06:09:55;15.73;;;8.82;;
24279;SDS011;12395;42.808;23.408;2023-05-06T06:12:21;17.63;;;8.80;;
24279;SDS011;12395;42.808;23.408;2023-05-06T06:14:46;17.73;;;9.30;;
24279;SDS011;12395;42.808;23.408;2023-05-06T06:17:15;19.33;;;10.05;;
24279;SDS011;12395;42.808;23.408;2023-05-06T06:19:41;16.67;;;9.15;;
24279;SDS011;12395;42.808;23.408;2023-05-06T06:22:07;20.20;;;10.77;;
24279;SDS011;12395;42.808;23.408;2023-05-06T06:24:32;17.15;;;9.60;;
24279;SDS011;12395;42.808;23.408;2023-05-06T06:26:59;18.20;;;9.23;;
24279;SDS011;12395;42.808;23.408;2023-05-06T06:29:25;17.92;;;9.05;;
24279;SDS011;12395;42.808;23.408;2023-05-06T06:31:51;16.60;;;8.85;;
24279;SDS011;12395;42.808;23.408;2023-05-06T06:34:16;14.50;;;9.07;;
24279;SDS011;12395;42.808;23.408;2023-05-06T06:36:42;15.48;;;9.48;;
24279;SDS011;12395;42.808;23.408;2023-05-06T06:39:09;14.32;;;8.57;;
24279;SDS011;12395;42.808;23.408;2023-05-06T06:41:36;14.45;;;7.88;;
24279;SDS011;12395;42.808;23.408;2023-05-06T06:44:01;14.27;;;7.78;;
24279;SDS011;12395;42.808;23.408;2023-05-06T06:46:27;27.50;;;16.85;;
24279;SDS011;12395;42.808;23.408;2023-05-06T06:48:52;24.55;;;15.63;;
24279;SDS011;12395;42.808;23.408;2023-05-06T06:51:17;17.13;;;11.07;;
24279;SDS011;12395;42.808;23.408;2023-05-06T06:53:43;20.33;;;12.25;;
24279;SDS011;12395;42.808;23.408;2023-05-06T06:56:09;18.10;;;10.85;;
24279;SDS011;12395;42.808;23.408;2023-05-06T06:58:36;17.98;;;10.75;;
24279;SDS011;12395;42.808;23.408;2023-05-06T07:01:01;15.30;;;8.63;;
24279;SDS011;12395;42.808;23.408;2023-05-06T07:03:27;16.02;;;8.57;;
24279;SDS011;12395;42.808;23.408;2023-05-06T07:05:52;14.38;;;8.70;;
24279;SDS011;12395;42.808;23.408;2023-05-06T07:08:17;15.52;;;8.50;;
24279;SDS011;12395;42.808;23.408;2023-05-06T07:13:10;14.00;;;8.20;;
24279;SDS011;12395;42.808;23.408;2023-05-06T07:15:36;12.70;;;7.30;;
24279;SDS011;12395;42.808;23.408;2023-05-06T07:18:01;11.75;;;7.03;;
24279;SDS011;12395;42.808;23.408;2023-05-06T07:20:26;10.88;;;6.63;;
24279;SDS011;12395;42.808;23.408;2023-05-06T07:22:52;12.85;;;7.55;;
24279;SDS011;12395;42.808;23.408;2023-05-06T07:25:18;13.35;;;8.43;;
24279;SDS011;12395;42.808;23.408;2023-05-06T07:27:44;13.98;;;8.05;;
24279;SDS011;12395;42.808;23.408;2023-05-06T07:30:09;13.93;;;8.57;;
24279;SDS011;12395;42.808;23.408;2023-05-06T07:32:35;15.15;;;8.70;;
24279;SDS011;12395;42.808;23.408;2023-05-06T07:35:01;13.38;;;8.32;;
24279;SDS011;12395;42.808;23.408;2023-05-06T07:37:26;11.88;;;6.95;;
24279;SDS011;12395;42.808;23.408;2023-05-06T07:39:52;11.23;;;6.80;;
24279;SDS011;12395;42.808;23.408;2023-05-06T07:42:17;10.52;;;5.70;;
24279;SDS011;12395;42.808;23.408;2023-05-06T07:44:43;9.68;;;5.60;;
24279;SDS011;12395;42.808;23.408;2023-05-06T07:47:08;8.23;;;5.47;;
24279;SDS011;12395;42.808;23.408;2023-05-06T07:49:33;8.32;;;5.32;;
24279;SDS011;12395;42.808;23.408;2023-05-06T07:51:59;7.93;;;4.90;;
24279;SDS011;12395;42.808;23.408;2023-05-06T07:54:25;11.80;;;7.00;;
24279;SDS011;12395;42.808;23.408;2023-05-06T07:56:50;12.32;;;7.05;;
24279;SDS011;12395;42.808;23.408;2023-05-06T07:59:16;9.82;;;5.82;;
24279;SDS011;12395;42.808;23.408;2023-05-06T08:01:41;9.75;;;5.57;;
24279;SDS011;12395;42.808;23.408;2023-05-06T08:04:07;10.38;;;6.47;;
24279;SDS011;12395;42.808;23.408;2023-05-06T08:06:32;8.77;;;5.53;;
24279;SDS011;12395;42.808;23.408;2023-05-06T08:08:58;8.98;;;5.78;;
24279;SDS011;12395;42.808;23.408;2023-05-06T08:11:23;10.15;;;5.45;;
24279;SDS011;12395;42.808;23.408;2023-05-06T08:13:49;8.30;;;5.63;;
24279;SDS011;12395;42.808;23.408;2023-05-06T08:16:14;5.53;;;3.88;;
24279;SDS011;12395;42.808;23.408;2023-05-06T08:18:40;8.93;;;3.97;;
24279;SDS011;12395;42.808;23.408;2023-05-06T08:21:05;5.82;;;4.18;;
24279;SDS011;12395;42.808;23.408;2023-05-06T08:23:31;7.70;;;4.10;;
24279;SDS011;12395;42.808;23.408;2023-05-06T08:25:56;8.23;;;3.88;;
24279;SDS011;12395;42.808;23.408;2023-05-06T08:28:23;6.05;;;3.60;;
24279;SDS011;12395;42.808;23.408;2023-05-06T08:30:48;4.78;;;3.50;;
24279;SDS011;12395;42.808;23.408;2023-05-06T08:33:16;7.72;;;3.80;;
24279;SDS011;12395;42.808;23.408;2023-05-06T08:35:42;5.03;;;3.40;;
24279;SDS011;12395;42.808;23.408;2023-05-06T08:38:09;7.40;;;3.53;;
24279;SDS011;12395;42.808;23.408;2023-05-06T08:40:34;6.10;;;3.67;;
24279;SDS011;12395;42.808;23.408;2023-05-06T08:43:06;7.13;;;3.42;;
24279;SDS011;12395;42.808;23.408;2023-05-06T08:45:36;7.00;;;3.13;;
24279;SDS011;12395;42.808;23.408;2023-05-06T08:48:02;6.95;;;3.50;;
24279;SDS011;12395;42.808;23.408;2023-05-06T08:50:28;6.28;;;3.20;;
24279;SDS011;12395;42.808;23.408;2023-05-06T08:52:53;5.45;;;3.50;;
24279;SDS011;12395;42.808;23.408;2023-05-06T08:55:18;5.28;;;3.33;;
24279;SDS011;12395;42.808;23.408;2023-05-06T08:57:46;5.25;;;3.33;;
24279;SDS011;12395;42.808;23.408;2023-05-06T09:00:13;4.25;;;3.22;;
24279;SDS011;12395;42.808;23.408;2023-05-06T09:02:39;7.05;;;3.33;;
24279;SDS011;12395;42.808;23.408;2023-05-06T09:05:05;6.95;;;3.40;;
24279;SDS011;12395;42.808;23.408;2023-05-06T09:07:32;7.38;;;3.50;;
24279;SDS011;12395;42.808;23.408;2023-05-06T09:09:57;7.07;;;3.60;;
24279;SDS011;12395;42.808;23.408;2023-05-06T09:12:23;5.40;;;3.70;;
24279;SDS011;12395;42.808;23.408;2023-05-06T09:14:48;6.53;;;3.47;;
24279;SDS011;12395;42.808;23.408;2023-05-06T09:17:18;7.82;;;3.90;;
24279;SDS011;12395;42.808;23.408;2023-05-06T09:19:49;5.97;;;3.20;;
24279;SDS011;12395;42.808;23.408;2023-05-06T09:22:15;5.88;;;3.33;;
24279;SDS011;12395;42.808;23.408;2023-05-06T09:24:41;6.55;;;3.75;;
24279;SDS011;12395;42.808;23.408;2023-05-06T09:27:06;6.90;;;3.72;;
24279;SDS011;12395;42.808;23.408;2023-05-06T09:29:31;8.68;;;3.85;;
24279;SDS011;12395;42.808;23.408;2023-05-06T09:31:57;8.93;;;3.53;;
24279;SDS011;12395;42.808;23.408;2023-05-06T09:34:28;6.30;;;3.85;;
24279;SDS011;12395;42.808;23.408;2023-05-06T09:36:53;5.38;;;3.50;;
24279;SDS011;12395;42.808;23.408;2023-05-06T09:39:24;6.78;;;3.60;;
24279;SDS011;12395;42.808;23.408;2023-05-06T09:41:50;5.22;;;3.40;;
24279;SDS011;12395;42.808;23.408;2023-05-06T09:44:15;8.95;;;3.92;;
24279;SDS011;12395;42.808;23.408;2023-05-06T09:46:41;4.57;;;3.38;;
24279;SDS011;12395;42.808;23.408;2023-05-06T09:49:07;4.95;;;3.28;;
24279;SDS011;12395;42.808;23.408;2023-05-06T09:51:32;4.90;;;3.28;;
24279;SDS011;12395;42.808;23.408;2023-05-06T09:53:58;7.28;;;3.50;;
24279;SDS011;12395;42.808;23.408;2023-05-06T09:56:25;5.90;;;3.60;;
24279;SDS011;12395;42.808;23.408;2023-05-06T09:58:52;5.63;;;3.60;;
24279;SDS011;12395;42.808;23.408;2023-05-06T10:01:19;5.38;;;4.00;;
24279;SDS011;12395;42.808;23.408;2023-05-06T10:03:45;6.47;;;3.60;;
24279;SDS011;12395;42.808;23.408;2023-05-06T10:06:12;8.70;;;3.08;;
24279;SDS011;12395;42.808;23.408;2023-05-06T10:08:37;5.20;;;2.80;;
24279;SDS011;12395;42.808;23.408;2023-05-06T10:11:04;5.55;;;3.10;;
24279;SDS011;12395;42.808;23.408;2023-05-06T10:13:30;4.80;;;3.13;;
24279;SDS011;12395;42.808;23.408;2023-05-06T10:15:56;8.25;;;3.17;;
24279;SDS011;12395;42.808;23.408;2023-05-06T10:18:27;5.20;;;3.13;;
24279;SDS011;12395;42.808;23.408;2023-05-06T10:20:54;5.30;;;3.25;;
24279;SDS011;12395;42.808;23.408;2023-05-06T10:23:24;5.30;;;2.90;;
24279;SDS011;12395;42.808;23.408;2023-05-06T10:25:59;4.95;;;2.80;;
24279;SDS011;12395;42.808;23.408;2023-05-06T10:28:30;6.25;;;3.10;;
24279;SDS011;12395;42.808;23.408;2023-05-06T10:30:58;4.88;;;2.95;;
24279;SDS011;12395;42.808;23.408;2023-05-06T10:33:24;4.45;;;2.83;;
24279;SDS011;12395;42.808;23.408;2023-05-06T10:35:55;4.63;;;3.08;;
24279;SDS011;12395;42.808;23.408;2023-05-06T10:38:33;5.03;;;2.88;;
24279;SDS011;12395;42.808;23.408;2023-05-06T10:41:01;5.53;;;3.10;;
24279;SDS011;12395;42.808;23.408;2023-05-06T10:43:31;6.30;;;3.10;;
24279;SDS011;12395;42.808;23.408;2023-05-06T10:48:37;4.47;;;2.90;;
24279;SDS011;12395;42.808;23.408;2023-05-06T10:54:04;4.60;;;3.03;;
24279;SDS011;12395;42.808;23.408;2023-05-06T10:59:15;5.45;;;3.25;;
24279;SDS011;12395;42.808;23.408;2023-05-06T11:01:50;5.10;;;2.92;;
24279;SDS011;12395;42.808;23.408;2023-05-06T11:04:20;5.03;;;3.03;;
24279;SDS011;12395;42.808;23.408;2023-05-06T11:06:47;5.40;;;3.00;;
24279;SDS011;12395;42.808;23.408;2023-05-06T11:09:14;4.93;;;2.83;;
24279;SDS011;12395;42.808;23.408;2023-05-06T11:11:52;4.10;;;3.08;;
24279;SDS011;12395;42.808;23.408;2023-05-06T11:14:32;5.38;;;2.97;;
24279;SDS011;12395;42.808;23.408;2023-05-06T11:17:05;6.45;;;3.20;;
24279;SDS011;12395;42.808;23.408;2023-05-06T11:19:32;4.28;;;2.85;;
24279;SDS011;12395;42.808;23.408;2023-05-06T11:22:00;4.80;;;2.78;;
24279;SDS011;12395;42.808;23.408;2023-05-06T11:26:55;5.50;;;3.33;;
24279;SDS011;12395;42.808;23.408;2023-05-06T11:29:21;5.70;;;3.25;;
24279;SDS011;12395;42.808;23.408;2023-05-06T11:31:47;5.70;;;2.90;;
24279;SDS011;12395;42.808;23.408;2023-05-06T11:34:47;6.63;;;3.10;;
24279;SDS011;12395;42.808;23.408;2023-05-06T11:37:06;3.83;;;3.00;;
24279;SDS011;12395;42.808;23.408;2023-05-06T11:39:34;4.03;;;2.83;;
24279;SDS011;12395;42.808;23.408;2023-05-06T11:44:30;7.50;;;2.90;;
24279;SDS011;12395;42.808;23.408;2023-05-06T11:46:58;6.05;;;3.00;;
24279;SDS011;12395;42.808;23.408;2023-05-06T11:49:24;6.63;;;3.30;;
24279;SDS011;12395;42.808;23.408;2023-05-06T11:51:51;5.93;;;3.22;;
24279;SDS011;12395;42.808;23.408;2023-05-06T11:54:16;4.85;;;3.10;;
24279;SDS011;12395;42.808;23.408;2023-05-06T11:56:48;6.22;;;2.95;;
24279;SDS011;12395;42.808;23.408;2023-05-06T11:59:26;5.32;;;2.80;;
24279;SDS011;12395;42.808;23.408;2023-05-06T12:04:23;5.50;;;2.97;;
24279;SDS011;12395;42.808;23.408;2023-05-06T12:06:48;4.57;;;2.72;;
24279;SDS011;12395;42.808;23.408;2023-05-06T12:09:13;4.43;;;2.50;;
24279;SDS011;12395;42.808;23.408;2023-05-06T12:11:39;5.30;;;2.75;;
24279;SDS011;12395;42.808;23.408;2023-05-06T12:14:07;6.28;;;2.75;;
24279;SDS011;12395;42.808;23.408;2023-05-06T12:16:34;4.13;;;2.35;;
24279;SDS011;12395;42.808;23.408;2023-05-06T12:19:00;3.75;;;2.75;;
24279;SDS011;12395;42.808;23.408;2023-05-06T12:21:26;4.23;;;2.77;;
24279;SDS011;12395;42.808;23.408;2023-05-06T12:23:54;4.45;;;2.55;;
24279;SDS011;12395;42.808;23.408;2023-05-06T12:26:21;4.03;;;2.60;;
24279;SDS011;12395;42.808;23.408;2023-05-06T12:29:08;5.15;;;2.80;;
24279;SDS011;12395;42.808;23.408;2023-05-06T12:31:34;3.83;;;2.50;;
24279;SDS011;12395;42.808;23.408;2023-05-06T12:34:00;5.45;;;2.70;;
24279;SDS011;12395;42.808;23.408;2023-05-06T12:36:26;4.53;;;2.78;;
24279;SDS011;12395;42.808;23.408;2023-05-06T12:38:56;6.97;;;2.55;;
24279;SDS011;12395;42.808;23.408;2023-05-06T12:41:35;4.13;;;2.83;;
24279;SDS011;12395;42.808;23.408;2023-05-06T12:44:03;4.38;;;2.70;;
24279;SDS011;12395;42.808;23.408;2023-05-06T12:46:49;3.80;;;2.70;;
24279;SDS011;12395;42.808;23.408;2023-05-06T12:49:16;5.45;;;2.83;;
24279;SDS011;12395;42.808;23.408;2023-05-06T12:51:42;4.32;;;2.50;;
24279;SDS011;12395;42.808;23.408;2023-05-06T12:54:27;6.22;;;3.03;;
24279;SDS011;12395;42.808;23.408;2023-05-06T12:56:53;7.07;;;2.97;;
24279;SDS011;12395;42.808;23.408;2023-05-06T12:59:18;4.30;;;2.75;;
24279;SDS011;12395;42.808;23.408;2023-05-06T13:01:43;4.43;;;2.78;;
24279;SDS011;12395;42.808;23.408;2023-05-06T13:04:09;4.65;;;2.60;;
24279;SDS011;12395;42.808;23.408;2023-05-06T13:06:35;4.78;;;2.40;;
24279;SDS011;12395;42.808;23.408;2023-05-06T13:09:00;4.88;;;2.60;;
24279;SDS011;12395;42.808;23.408;2023-05-06T13:11:25;5.07;;;3.00;;
24279;SDS011;12395;42.808;23.408;2023-05-06T13:13:51;4.28;;;2.67;;
24279;SDS011;12395;42.808;23.408;2023-05-06T13:16:17;5.88;;;2.92;;
24279;SDS011;12395;42.808;23.408;2023-05-06T13:18:42;5.15;;;2.95;;
24279;SDS011;12395;42.808;23.408;2023-05-06T13:21:08;5.55;;;2.80;;
24279;SDS011;12395;42.808;23.408;2023-05-06T13:23:33;4.78;;;2.63;;
24279;SDS011;12395;42.808;23.408;2023-05-06T13:26:00;3.80;;;2.60;;
24279;SDS011;12395;42.808;23.408;2023-05-06T13:28:29;4.18;;;2.60;;
24279;SDS011;12395;42.808;23.408;2023-05-06T13:30:56;3.70;;;2.60;;
24279;SDS011;12395;42.808;23.408;2023-05-06T13:33:21;5.43;;;2.75;;
24279;SDS011;12395;42.808;23.408;2023-05-06T13:35:46;5.32;;;2.60;;
24279;SDS011;12395;42.808;23.408;2023-05-06T13:38:12;3.35;;;2.60;;
24279;SDS011;12395;42.808;23.408;2023-05-06T13:40:37;3.55;;;2.80;;
24279;SDS011;12395;42.808;23.408;2023-05-06T13:43:02;4.28;;;2.60;;
24279;SDS011;12395;42.808;23.408;2023-05-06T13:45:28;4.75;;;2.50;;
24279;SDS011;12395;42.808;23.408;2023-05-06T13:47:53;5.15;;;2.70;;
24279;SDS011;12395;42.808;23.408;2023-05-06T13:50:18;3.42;;;2.53;;
24279;SDS011;12395;42.808;23.408;2023-05-06T13:52:44;4.50;;;2.50;;
24279;SDS011;12395;42.808;23.408;2023-05-06T13:55:09;4.22;;;2.30;;
24279;SDS011;12395;42.808;23.408;2023-05-06T13:57:35;6.13;;;2.80;;
24279;SDS011;12395;42.808;23.408;2023-05-06T14:00:00;3.65;;;2.50;;
24279;SDS011;12395;42.808;23.408;2023-05-06T14:02:26;4.05;;;2.60;;
24279;SDS011;12395;42.808;23.408;2023-05-06T14:04:51;4.07;;;2.67;;
24279;SDS011;12395;42.808;23.408;2023-05-06T14:07:16;3.47;;;2.42;;
24279;SDS011;12395;42.808;23.408;2023-05-06T14:09:42;3.45;;;2.60;;
24279;SDS011;12395;42.808;23.408;2023-05-06T14:12:07;4.18;;;2.55;;
24279;SDS011;12395;42.808;23.408;2023-05-06T14:14:33;5.10;;;2.53;;
24279;SDS011;12395;42.808;23.408;2023-05-06T14:16:58;4.22;;;2.72;;
24279;SDS011;12395;42.808;23.408;2023-05-06T14:19:23;4.53;;;2.60;;
24279;SDS011;12395;42.808;23.408;2023-05-06T14:21:49;4.38;;;2.70;;
24279;SDS011;12395;42.808;23.408;2023-05-06T14:24:15;3.45;;;2.70;;
24279;SDS011;12395;42.808;23.408;2023-05-06T14:26:41;3.45;;;2.50;;
24279;SDS011;12395;42.808;23.408;2023-05-06T14:29:06;3.65;;;2.45;;
24279;SDS011;12395;42.808;23.408;2023-05-06T14:31:32;4.22;;;2.58;;
24279;SDS011;12395;42.808;23.408;2023-05-06T14:33:58;5.40;;;2.50;;
24279;SDS011;12395;42.808;23.408;2023-05-06T14:36:23;3.70;;;2.63;;
24279;SDS011;12395;42.808;23.408;2023-05-06T14:38:49;3.13;;;2.40;;
24279;SDS011;12395;42.808;23.408;2023-05-06T14:41:14;5.03;;;2.58;;
24279;SDS011;12395;42.808;23.408;2023-05-06T14:43:39;3.58;;;2.33;;
24279;SDS011;12395;42.808;23.408;2023-05-06T14:46:05;3.40;;;2.20;;